createdAt,value
2017-04-15T00:00:43.630Z,0
2017-04-15T00:01:45.707Z,0
2017-04-15T00:02:47.856Z,0
2017-04-15T00:03:49.660Z,0
2017-04-15T00:04:51.490Z,0
2017-04-15T00:05:53.299Z,0
2017-04-15T00:06:55.117Z,0
2017-04-15T00:07:56.913Z,0
2017-04-15T00:08:59.080Z,0
2017-04-15T00:10:01.249Z,0
2017-04-15T00:11:03.072Z,0
2017-04-15T00:12:04.887Z,0
2017-04-15T00:13:06.690Z,0
2017-04-15T00:14:08.504Z,0
2017-04-15T00:15:10.969Z,0
2017-04-15T00:16:12.774Z,0
2017-04-15T00:17:14.589Z,0
2017-04-15T00:18:16.414Z,0
2017-04-15T00:19:18.568Z,0
2017-04-15T00:20:20.737Z,0
2017-04-15T00:21:22.548Z,0
2017-04-15T00:22:24.358Z,0
2017-04-15T00:23:26.167Z,0
2017-04-15T00:24:27.993Z,0
2017-04-15T00:25:29.867Z,0
2017-04-15T00:26:31.669Z,0
2017-04-15T00:27:33.483Z,0
2017-04-15T00:28:35.448Z,0
2017-04-15T00:29:37.275Z,0
2017-04-15T00:30:39.090Z,0
2017-04-15T00:31:40.905Z,0
2017-04-15T00:32:42.722Z,0
2017-04-15T00:33:44.530Z,0
2017-04-15T00:34:46.352Z,0
2017-04-15T00:35:48.197Z,0
2017-04-15T00:36:50.015Z,0
2017-04-15T00:37:51.851Z,0
2017-04-15T00:38:53.665Z,0
2017-04-15T00:39:55.509Z,0
2017-04-15T00:40:57.326Z,0
2017-04-15T00:41:59.321Z,0
2017-04-15T00:43:01.135Z,0
2017-04-15T00:44:03.284Z,0
2017-04-15T00:45:05.100Z,0
2017-04-15T00:46:07.256Z,0
2017-04-15T00:47:09.081Z,0
2017-04-15T00:48:10.898Z,0
2017-04-15T00:49:12.702Z,0
2017-04-15T00:50:14.896Z,0
2017-04-15T00:51:16.714Z,0
2017-04-15T00:52:18.531Z,0
2017-04-15T00:53:21.333Z,0
2017-04-15T00:54:23.531Z,0
2017-04-15T00:55:25.347Z,0
2017-04-15T00:56:27.155Z,0
2017-04-15T00:57:28.970Z,0
2017-04-15T00:58:31.112Z,0
2017-04-15T00:59:33.620Z,0
2017-04-15T01:00:35.437Z,0
2017-04-15T01:01:37.251Z,0
2017-04-15T01:02:39.062Z,0
2017-04-15T01:03:41.574Z,0
2017-04-15T01:04:44.074Z,0
2017-04-15T01:05:45.887Z,0
2017-04-15T01:06:48.057Z,0
2017-04-15T01:07:49.925Z,0
2017-04-15T01:08:52.092Z,0
2017-04-15T01:09:53.907Z,0
2017-04-15T01:10:55.711Z,0
2017-04-15T01:11:57.519Z,0
2017-04-15T01:12:59.340Z,0
2017-04-15T01:14:01.480Z,0
2017-04-15T01:15:03.643Z,0
2017-04-15T01:16:05.446Z,0
2017-04-15T01:17:07.626Z,0
2017-04-15T01:18:09.459Z,0
2017-04-15T01:19:11.301Z,0
2017-04-15T01:20:13.780Z,0
2017-04-15T01:21:15.592Z,0
2017-04-15T01:22:17.405Z,0
2017-04-15T01:23:19.563Z,0
2017-04-15T01:24:21.376Z,0
2017-04-15T01:25:23.532Z,0
2017-04-15T01:26:25.350Z,0
2017-04-15T01:27:27.171Z,0
2017-04-15T01:28:28.981Z,0
2017-04-15T01:29:30.788Z,0
2017-04-15T01:30:32.591Z,0
2017-04-15T01:31:34.399Z,0
2017-04-15T01:32:36.210Z,0
2017-04-15T01:33:38.708Z,0
2017-04-15T01:34:40.517Z,0
2017-04-15T01:35:42.328Z,0
2017-04-15T01:36:44.140Z,0
2017-04-15T01:37:45.954Z,0
2017-04-15T01:38:47.760Z,0
2017-04-15T01:39:49.910Z,0
2017-04-15T01:40:52.071Z,0
2017-04-15T01:41:53.886Z,0
2017-04-15T01:42:55.695Z,0
2017-04-15T01:43:57.516Z,0
2017-04-15T01:44:59.325Z,0
2017-04-15T01:46:01.142Z,0
2017-04-15T01:47:02.951Z,0
2017-04-15T01:48:04.767Z,0
2017-04-15T01:49:06.585Z,0
2017-04-15T01:50:08.402Z,0
2017-04-15T01:51:10.224Z,0
2017-04-15T01:52:12.025Z,0
2017-04-15T01:53:14.178Z,0
2017-04-15T01:54:16.003Z,0
2017-04-15T01:55:17.844Z,0
2017-04-15T01:56:19.669Z,0
2017-04-15T01:57:21.493Z,0
2017-04-15T01:58:23.304Z,0
2017-04-15T01:59:25.449Z,0
2017-04-15T02:00:27.615Z,0
2017-04-15T02:01:29.424Z,0
2017-04-15T02:02:31.234Z,0
2017-04-15T02:03:33.044Z,0
2017-04-15T02:04:34.872Z,0
2017-04-15T02:05:36.676Z,0
2017-04-15T02:06:38.817Z,0
2017-04-15T02:07:40.632Z,0
2017-04-15T02:08:43.110Z,0
2017-04-15T02:09:44.924Z,0
2017-04-15T02:10:47.290Z,0
2017-04-15T02:11:49.430Z,0
2017-04-15T02:12:51.574Z,0
2017-04-15T02:13:53.738Z,0
2017-04-15T02:14:55.549Z,0
2017-04-15T02:15:57.352Z,0
2017-04-15T02:16:59.167Z,0
2017-04-15T02:18:00.983Z,0
2017-04-15T02:19:02.813Z,0
2017-04-15T02:20:04.622Z,0
2017-04-15T02:21:06.429Z,0
2017-04-15T02:22:08.250Z,0
2017-04-15T02:23:10.069Z,0
2017-04-15T02:24:12.315Z,0
2017-04-15T02:25:14.124Z,0
2017-04-15T02:26:15.937Z,0
2017-04-15T02:27:17.764Z,0
2017-04-15T02:28:19.558Z,0
2017-04-15T02:29:21.702Z,0
2017-04-15T02:30:23.850Z,0
2017-04-15T02:31:26.001Z,0
2017-04-15T02:32:27.841Z,0
2017-04-15T02:33:29.641Z,0
2017-04-15T02:34:31.482Z,0
2017-04-15T02:35:33.292Z,0
2017-04-15T02:36:35.472Z,0
2017-04-15T02:37:37.287Z,0
2017-04-15T02:38:39.093Z,0
2017-04-15T02:39:40.911Z,0
2017-04-15T02:40:42.722Z,0
2017-04-15T02:41:44.887Z,0
2017-04-15T02:42:46.687Z,0
2017-04-15T02:43:48.500Z,0
2017-04-15T02:44:50.653Z,0
2017-04-15T02:45:52.454Z,0
2017-04-15T02:46:54.618Z,0
2017-04-15T02:47:56.422Z,0
2017-04-15T02:48:59.152Z,0
2017-04-15T02:50:01.311Z,0
2017-04-15T02:51:03.457Z,0
2017-04-15T02:52:05.267Z,0
2017-04-15T02:53:07.086Z,0
2017-04-15T02:54:09.248Z,0
2017-04-15T02:55:11.070Z,0
2017-04-15T02:56:12.885Z,0
2017-04-15T02:57:14.701Z,0
2017-04-15T02:58:16.507Z,0
2017-04-15T02:59:18.665Z,0
2017-04-15T03:00:20.480Z,0
2017-04-15T03:01:22.282Z,0
2017-04-15T03:02:24.095Z,0
2017-04-15T03:03:25.916Z,0
2017-04-15T03:04:28.065Z,0
2017-04-15T03:05:30.214Z,0
2017-04-15T03:06:32.372Z,0
2017-04-15T03:07:34.181Z,0
2017-04-15T03:08:35.992Z,0
2017-04-15T03:09:37.820Z,0
2017-04-15T03:10:39.963Z,0
2017-04-15T03:11:42.112Z,0
2017-04-15T03:12:43.927Z,0
2017-04-15T03:13:45.803Z,0
2017-04-15T03:14:47.949Z,0
2017-04-15T03:15:50.108Z,0
2017-04-15T03:16:51.924Z,0
2017-04-15T03:17:53.731Z,0
2017-04-15T03:18:55.543Z,0
2017-04-15T03:19:57.365Z,0
2017-04-15T03:20:59.174Z,0
2017-04-15T03:22:00.989Z,0
2017-04-15T03:23:02.813Z,0
2017-04-15T03:24:05.310Z,0
2017-04-15T03:25:07.453Z,0
2017-04-15T03:26:09.463Z,0
2017-04-15T03:27:11.272Z,0
2017-04-15T03:28:13.096Z,0
2017-04-15T03:29:14.904Z,0
2017-04-15T03:30:16.726Z,0
2017-04-15T03:31:18.530Z,0
2017-04-15T03:32:20.347Z,0
2017-04-15T03:33:22.156Z,0
2017-04-15T03:34:23.958Z,1
2017-04-15T03:35:25.769Z,1
2017-04-15T03:36:27.926Z,1
2017-04-15T03:37:30.279Z,1
2017-04-15T03:38:32.090Z,1
2017-04-15T03:39:34.597Z,1
2017-04-15T03:40:36.411Z,2
2017-04-15T03:41:38.220Z,2
2017-04-15T03:42:40.036Z,3
2017-04-15T03:43:41.852Z,3
2017-04-15T03:44:44.354Z,3
2017-04-15T03:45:46.507Z,3
2017-04-15T03:46:48.328Z,3
2017-04-15T03:47:50.137Z,4
2017-04-15T03:48:51.955Z,4
2017-04-15T03:49:54.172Z,5
2017-04-15T03:50:55.992Z,6
2017-04-15T03:51:57.798Z,7
2017-04-15T03:52:59.606Z,8
2017-04-15T03:54:01.758Z,10
2017-04-15T03:55:03.931Z,12
2017-04-15T03:56:05.727Z,13
2017-04-15T03:57:07.547Z,16
2017-04-15T03:58:09.354Z,19
2017-04-15T03:59:11.182Z,23
2017-04-15T04:00:13.668Z,27
2017-04-15T04:01:15.471Z,32
2017-04-15T04:02:17.462Z,37
2017-04-15T04:03:19.276Z,41
2017-04-15T04:04:21.100Z,47
2017-04-15T04:05:22.911Z,53
2017-04-15T04:06:25.076Z,57
2017-04-15T04:07:26.872Z,61
2017-04-15T04:08:28.716Z,63
2017-04-15T04:09:30.868Z,66
2017-04-15T04:10:32.681Z,70
2017-04-15T04:11:34.490Z,76
2017-04-15T04:12:36.630Z,85
2017-04-15T04:13:39.229Z,92
2017-04-15T04:14:41.435Z,98
2017-04-15T04:15:43.261Z,104
2017-04-15T04:16:45.065Z,109
2017-04-15T04:17:47.232Z,115
2017-04-15T04:18:49.048Z,120
2017-04-15T04:19:50.867Z,128
2017-04-15T04:20:52.673Z,133
2017-04-15T04:21:54.492Z,138
2017-04-15T04:22:56.301Z,144
2017-04-15T04:23:58.119Z,145
2017-04-15T04:25:00.263Z,151
2017-04-15T04:26:02.179Z,161
2017-04-15T04:27:04.018Z,171
2017-04-15T04:28:05.835Z,184
2017-04-15T04:29:07.980Z,196
2017-04-15T04:30:09.805Z,206
2017-04-15T04:31:11.642Z,212
2017-04-15T04:32:13.490Z,213
2017-04-15T04:33:15.677Z,214
2017-04-15T04:34:17.487Z,221
2017-04-15T04:35:19.319Z,229
2017-04-15T04:36:21.161Z,243
2017-04-15T04:37:23.099Z,265
2017-04-15T04:38:25.127Z,300
2017-04-15T04:39:26.984Z,315
2017-04-15T04:40:28.844Z,332
2017-04-15T04:41:30.789Z,359
2017-04-15T04:42:32.642Z,400
2017-04-15T04:43:34.477Z,471
2017-04-15T04:44:36.340Z,510
2017-04-15T04:45:38.177Z,544
2017-04-15T04:46:40.448Z,612
2017-04-15T04:47:42.263Z,680
2017-04-15T04:48:44.090Z,765
2017-04-15T04:49:46.591Z,819
2017-04-15T04:50:48.512Z,857
2017-04-15T04:51:50.675Z,873
2017-04-15T04:52:52.493Z,862
2017-04-15T04:53:54.409Z,896
2017-04-15T04:54:56.236Z,795
2017-04-15T04:55:58.056Z,656
2017-04-15T04:56:59.941Z,678
2017-04-15T04:58:02.092Z,678
2017-04-15T04:59:04.260Z,581
2017-04-15T05:00:06.075Z,486
2017-04-15T05:01:07.893Z,463
2017-04-15T05:02:09.855Z,484
2017-04-15T05:03:11.672Z,455
2017-04-15T05:04:13.830Z,416
2017-04-15T05:05:15.649Z,385
2017-04-15T05:06:17.461Z,368
2017-04-15T05:07:19.269Z,378
2017-04-15T05:08:21.429Z,313
2017-04-15T05:09:23.250Z,370
2017-04-15T05:10:25.121Z,390
2017-04-15T05:11:26.934Z,432
2017-04-15T05:12:28.760Z,459
2017-04-15T05:13:30.627Z,537
2017-04-15T05:14:32.442Z,408
2017-04-15T05:15:34.245Z,497
2017-04-15T05:16:36.061Z,606
2017-04-15T05:17:37.870Z,713
2017-04-15T05:18:40.367Z,919
2017-04-15T05:19:42.864Z,790
2017-04-15T05:20:45.107Z,957
2017-04-15T05:21:46.917Z,953
2017-04-15T05:22:48.740Z,688
2017-04-15T05:23:50.596Z,936
2017-04-15T05:24:53.002Z,954
2017-04-15T05:25:55.208Z,819
2017-04-15T05:26:57.032Z,986
2017-04-15T05:27:58.839Z,964
2017-04-15T05:29:00.649Z,879
2017-04-15T05:30:02.465Z,835
2017-04-15T05:31:04.281Z,883
2017-04-15T05:32:06.293Z,1111
2017-04-15T05:33:08.101Z,1344
2017-04-15T05:34:09.919Z,1359
2017-04-15T05:35:11.722Z,1218
2017-04-15T05:36:13.546Z,1249
2017-04-15T05:37:15.354Z,1314
2017-04-15T05:38:17.339Z,1370
2017-04-15T05:39:19.389Z,1353
2017-04-15T05:40:21.548Z,1581
2017-04-15T05:41:23.359Z,1515
2017-04-15T05:42:25.169Z,1416
2017-04-15T05:43:26.995Z,1486
2017-04-15T05:44:29.148Z,1738
2017-04-15T05:45:30.958Z,1826
2017-04-15T05:46:32.781Z,1639
2017-04-15T05:47:34.592Z,1686
2017-04-15T05:48:36.395Z,2016
2017-04-15T05:49:38.208Z,2291
2017-04-15T05:50:40.123Z,2201
2017-04-15T05:51:41.945Z,1996
2017-04-15T05:52:44.092Z,1965
2017-04-15T05:53:46.245Z,2090
2017-04-15T05:54:48.164Z,1979
2017-04-15T05:55:50.327Z,1933
2017-04-15T05:56:52.270Z,1757
2017-04-15T05:57:54.416Z,1843
2017-04-15T05:58:56.426Z,2009
2017-04-15T05:59:58.595Z,1801
2017-04-15T06:01:00.746Z,1464
2017-04-15T06:02:03.045Z,1330
2017-04-15T06:03:04.847Z,1505
2017-04-15T06:04:06.659Z,1716
2017-04-15T06:05:08.486Z,1804
2017-04-15T06:06:10.293Z,1857
2017-04-15T06:07:12.239Z,1645
2017-04-15T06:08:14.166Z,1382
2017-04-15T06:09:15.981Z,1286
2017-04-15T06:10:17.789Z,1269
2017-04-15T06:11:19.880Z,1315
2017-04-15T06:12:21.685Z,1068
2017-04-15T06:13:23.506Z,1080
2017-04-15T06:14:25.319Z,1222
2017-04-15T06:15:27.158Z,1431
2017-04-15T06:16:28.960Z,1688
2017-04-15T06:17:31.118Z,1440
2017-04-15T06:18:33.093Z,1496
2017-04-15T06:19:35.124Z,1905
2017-04-15T06:20:36.933Z,1600
2017-04-15T06:21:39.095Z,1368
2017-04-15T06:22:40.912Z,1418
2017-04-15T06:23:42.706Z,1369
2017-04-15T06:24:45.558Z,1201
2017-04-15T06:25:47.361Z,1133
2017-04-15T06:26:49.175Z,989
2017-04-15T06:27:50.974Z,1179
2017-04-15T06:28:52.993Z,1053
2017-04-15T06:29:58.376Z,1115
2017-04-15T06:31:00.410Z,1083
2017-04-15T06:32:02.460Z,996
2017-04-15T06:33:04.266Z,917
2017-04-15T06:37:11.121Z,1136
2017-04-15T06:38:12.938Z,1090
2017-04-15T06:39:14.752Z,866
2017-04-15T06:40:17.381Z,943
2017-04-15T06:41:19.201Z,1596
2017-04-15T06:42:21.340Z,2283
2017-04-15T06:43:23.691Z,2188
2017-04-15T06:44:27.775Z,1507
2017-04-15T06:45:29.935Z,1415
2017-04-15T06:46:31.753Z,1406
2017-04-15T06:47:33.555Z,1174
2017-04-15T06:48:35.375Z,955
2017-04-15T06:49:37.521Z,784
2017-04-15T06:50:39.673Z,687
2017-04-15T06:51:41.870Z,714
2017-04-15T06:52:43.697Z,830
2017-04-15T06:53:46.455Z,997
2017-04-15T06:54:48.364Z,986
2017-04-15T06:55:50.172Z,1150
2017-04-15T06:56:51.998Z,1218
2017-04-15T06:57:54.033Z,1286
2017-04-15T06:58:56.182Z,1467
2017-04-15T06:59:58.324Z,1704
2017-04-15T07:01:00.140Z,2035
2017-04-15T07:02:02.257Z,2269
2017-04-15T07:03:04.076Z,1869
2017-04-15T07:04:06.218Z,1929
2017-04-15T07:05:08.047Z,1568
2017-04-15T07:06:09.895Z,1560
2017-04-15T07:07:11.710Z,1969
2017-04-15T07:08:13.519Z,2301
2017-04-15T07:09:15.376Z,2877
2017-04-15T07:10:17.537Z,3084
2017-04-15T07:11:19.910Z,3011
2017-04-15T07:12:21.950Z,3505
2017-04-15T07:13:23.763Z,3542
2017-04-15T07:14:25.578Z,3686
2017-04-15T07:15:27.414Z,4276
2017-04-15T07:16:29.548Z,5260
2017-04-15T07:17:31.369Z,5834
2017-04-15T07:18:33.182Z,5672
2017-04-15T07:19:35.525Z,4404
2017-04-15T07:20:37.438Z,3690
2017-04-15T07:21:39.258Z,3421
2017-04-15T07:22:41.684Z,3800
2017-04-15T07:23:43.509Z,4452
2017-04-15T07:24:46.032Z,3980
2017-04-15T07:25:47.841Z,3877
2017-04-15T07:26:50.003Z,4060
2017-04-15T07:27:51.815Z,4946
2017-04-15T07:28:53.977Z,4658
2017-04-15T07:29:55.785Z,6064
2017-04-15T07:30:57.616Z,6481
2017-04-15T07:31:59.729Z,5131
2017-04-15T07:33:01.578Z,3963
2017-04-15T07:34:03.417Z,4022
2017-04-15T07:35:05.227Z,5182
2017-04-15T07:36:07.410Z,6670
2017-04-15T07:37:10.600Z,7815
2017-04-15T07:38:12.593Z,6009
2017-04-15T07:39:15.025Z,4765
2017-04-15T07:40:17.185Z,8280
2017-04-15T07:41:19.663Z,9195
2017-04-15T07:42:21.938Z,9230
2017-04-15T07:43:23.762Z,8920
2017-04-15T07:44:25.921Z,8217
2017-04-15T07:45:28.395Z,7808
2017-04-15T07:46:33.045Z,6920
2017-04-15T07:47:35.541Z,5662
2017-04-15T07:48:38.044Z,4382
2017-04-15T07:49:40.204Z,3728
2017-04-15T07:50:42.050Z,4502
2017-04-15T07:51:44.108Z,4794
2017-04-15T07:52:45.943Z,5503
2017-04-15T07:53:48.081Z,6120
2017-04-15T07:54:50.586Z,6753
2017-04-15T07:55:52.748Z,7257
2017-04-15T07:56:54.629Z,6060
2017-04-15T07:57:56.678Z,6840
2017-04-15T07:59:00.075Z,7388
2017-04-15T08:00:02.814Z,6877
2017-04-15T08:01:04.986Z,8385
2017-04-15T08:02:06.818Z,8543
2017-04-15T08:03:08.718Z,8411
2017-04-15T08:04:10.528Z,7688
2017-04-15T08:05:12.392Z,8364
2017-04-15T08:06:14.238Z,7423
2017-04-15T08:06:38.472Z,6766
2017-04-15T08:07:40.280Z,6062
2017-04-15T08:08:42.761Z,5191
2017-04-15T08:09:44.919Z,6393
2017-04-15T08:10:47.104Z,5362
2017-04-15T08:11:48.918Z,4141
2017-04-15T08:12:50.755Z,5371
2017-04-15T08:13:53.130Z,5928
2017-04-15T08:14:55.282Z,5150
2017-04-15T08:15:57.097Z,5084
2017-04-15T08:16:58.913Z,5441
2017-04-15T08:18:00.726Z,4288
2017-04-15T08:19:02.554Z,4068
2017-04-15T08:20:05.045Z,3801
2017-04-15T08:21:07.228Z,3269
2017-04-15T08:22:09.027Z,4066
2017-04-15T08:23:10.845Z,3561
2017-04-15T08:24:13.173Z,5190
2017-04-15T08:25:15.711Z,5256
2017-04-15T08:26:17.527Z,4782
2017-04-15T08:27:19.337Z,3316
2017-04-15T08:28:21.282Z,4744
2017-04-15T08:29:23.095Z,7017
2017-04-15T08:30:24.904Z,7964
2017-04-15T08:31:26.714Z,10187
2017-04-15T08:32:28.867Z,8565
2017-04-15T08:33:31.016Z,7155
2017-04-15T08:34:32.840Z,7776
2017-04-15T08:35:34.903Z,5683
2017-04-15T08:36:37.325Z,6596
2017-04-15T08:37:39.140Z,5928
2017-04-15T08:38:41.591Z,5638
2017-04-15T08:39:43.396Z,5612
2017-04-15T08:40:45.219Z,5050
2017-04-15T08:41:47.032Z,5367
2017-04-15T08:42:49.194Z,6205
2017-04-15T08:43:50.993Z,6288
2017-04-15T08:44:52.819Z,5090
2017-04-15T08:45:54.635Z,4734
2017-04-15T08:46:56.746Z,6938
2017-04-15T08:47:58.959Z,7159
2017-04-15T08:49:00.774Z,7739
2017-04-15T08:50:02.760Z,7644
2017-04-15T08:51:04.917Z,6616
2017-04-15T08:52:06.734Z,6197
2017-04-15T08:53:08.546Z,9470
2017-04-15T08:54:10.389Z,8852
2017-04-15T08:55:12.545Z,12563
2017-04-15T08:56:14.719Z,10742
2017-04-15T08:57:16.539Z,8739
2017-04-15T08:58:19.035Z,8095
2017-04-15T08:59:20.863Z,6920
2017-04-15T09:00:22.674Z,7060
2017-04-15T09:01:24.500Z,7221
2017-04-15T09:02:26.319Z,7529
2017-04-15T09:03:28.121Z,7779
2017-04-15T09:04:29.945Z,9654
2017-04-15T09:05:31.768Z,9563
2017-04-15T09:06:33.594Z,10066
2017-04-15T09:07:35.516Z,9267
2017-04-15T09:08:37.335Z,8311
2017-04-15T09:09:39.524Z,7377
2017-04-15T09:10:41.913Z,8889
2017-04-15T09:11:43.732Z,7601
2017-04-15T09:12:45.555Z,5434
2017-04-15T09:13:47.377Z,7081
2017-04-15T09:14:49.882Z,8485
2017-04-15T09:15:51.705Z,8573
2017-04-15T09:16:53.506Z,9243
2017-04-15T09:17:55.326Z,8544
2017-04-15T09:18:57.482Z,9717
2017-04-15T09:19:59.303Z,10321
2017-04-15T09:21:01.524Z,8037
2017-04-15T09:22:03.338Z,6711
2017-04-15T09:23:05.160Z,6886
2017-04-15T09:24:07.569Z,6530
2017-04-15T09:25:09.367Z,6819
2017-04-15T09:26:11.192Z,6775
2017-04-15T09:27:13.010Z,5846
2017-04-15T09:28:14.842Z,6067
2017-04-15T17:16:21.635Z,5918
2017-04-15T17:17:29.178Z,5073
2017-04-15T17:18:30.981Z,4142
2017-04-15T17:19:33.810Z,4845
2017-04-15T17:20:35.643Z,4769
2017-04-15T17:21:38.245Z,3532
2017-04-15T17:22:40.081Z,3920
2017-04-15T17:23:41.882Z,3904
2017-04-15T17:24:43.695Z,4875
2017-04-15T17:25:45.757Z,3432
2017-04-15T17:26:47.573Z,2802
2017-04-15T17:27:49.385Z,2683
2017-04-15T17:28:51.212Z,2490
2017-04-15T17:29:53.268Z,2442
2017-04-15T17:30:55.094Z,2400
2017-04-15T17:31:56.900Z,2345
2017-04-15T17:32:59.069Z,2296
2017-04-15T17:34:00.886Z,2223
2017-04-15T17:35:02.700Z,2225
2017-04-15T17:36:04.521Z,2158
2017-04-15T17:37:06.520Z,2216
2017-04-15T17:38:08.333Z,2122
2017-04-15T17:39:10.145Z,2104
2017-04-15T17:40:12.457Z,2040
2017-04-15T17:41:14.269Z,1920
2017-04-15T17:42:16.087Z,1865
2017-04-15T17:43:17.908Z,1753
2017-04-15T17:44:19.761Z,1681
2017-04-15T17:45:21.901Z,1632
2017-04-15T17:46:23.890Z,1562
2017-04-15T17:47:25.712Z,1485
2017-04-15T17:48:27.528Z,1406
2017-04-15T17:49:29.480Z,1358
2017-04-15T17:50:31.301Z,1292
2017-04-15T17:51:33.113Z,1254
2017-04-15T17:52:35.429Z,1197
2017-04-15T17:53:37.264Z,1148
2017-04-15T17:54:39.090Z,1088
2017-04-15T17:55:40.912Z,1075
2017-04-15T17:56:42.740Z,1044
2017-04-15T17:57:44.549Z,925
2017-04-15T17:58:46.361Z,929
2017-04-15T17:59:48.518Z,908
2017-04-15T18:00:50.323Z,845
2017-04-15T18:01:52.172Z,787
2017-04-15T18:02:54.458Z,701
2017-04-15T18:03:56.329Z,656
2017-04-15T18:04:58.147Z,605
2017-04-15T18:06:00.075Z,561
2017-04-15T18:07:01.892Z,521
2017-04-15T18:08:03.708Z,484
2017-04-15T18:09:05.876Z,459
2017-04-15T18:10:08.033Z,428
2017-04-15T18:11:09.855Z,395
2017-04-15T18:12:29.813Z,362
2017-04-15T18:13:32.402Z,323
2017-04-15T18:14:34.230Z,298
2017-04-15T18:15:36.061Z,278
2017-04-15T18:16:38.216Z,254
2017-04-15T18:17:40.049Z,233
2017-04-15T18:18:42.198Z,210
2017-04-15T18:19:44.366Z,194
2017-04-15T18:20:46.514Z,174
2017-04-15T18:21:48.336Z,155
2017-04-15T18:22:50.475Z,139
2017-04-15T18:23:52.293Z,124
2017-04-15T18:24:54.241Z,111
2017-04-15T18:25:56.061Z,99
2017-04-15T18:26:57.864Z,87
2017-04-15T18:28:00.108Z,76
2017-04-15T18:29:02.278Z,67
2017-04-15T18:30:04.087Z,58
2017-04-15T18:31:05.913Z,51
2017-04-15T18:32:08.060Z,45
2017-04-15T18:33:09.892Z,40
2017-04-15T18:34:11.711Z,34
2017-04-15T18:35:13.823Z,29
2017-04-15T18:36:15.652Z,25
2017-04-15T18:37:17.489Z,22
2017-04-15T18:38:19.655Z,19
2017-04-15T18:39:21.612Z,17
2017-04-15T18:40:23.428Z,13
2017-04-15T18:41:25.243Z,13
2017-04-15T18:42:27.045Z,10
2017-04-15T18:43:28.866Z,8
2017-04-15T18:44:30.678Z,8
2017-04-15T18:45:32.836Z,7
2017-04-15T18:46:34.635Z,6
2017-04-15T18:47:36.459Z,5
2017-04-15T18:48:38.283Z,3
2017-04-15T18:49:40.109Z,3
2017-04-15T18:50:42.237Z,3
2017-04-15T18:51:44.047Z,1
2017-04-15T18:52:46.228Z,1
2017-04-15T18:53:48.087Z,0
2017-04-15T18:54:49.926Z,2
2017-04-15T18:55:51.732Z,1
2017-04-15T18:56:53.560Z,1
2017-04-15T18:57:55.560Z,1
2017-04-15T18:58:57.364Z,1
2017-04-15T18:59:59.192Z,1
2017-04-15T19:01:01.004Z,1
2017-04-15T19:02:02.821Z,1
2017-04-15T19:03:04.664Z,1
2017-04-15T19:04:06.491Z,0
2017-04-15T19:05:08.316Z,0
2017-04-15T19:06:10.126Z,0
2017-04-15T19:07:11.939Z,0
2017-04-15T19:08:13.766Z,0
2017-04-15T19:09:15.821Z,0
2017-04-15T19:10:17.643Z,0
2017-04-15T19:11:19.465Z,0
2017-04-15T19:12:21.418Z,0
2017-04-15T19:13:23.233Z,0
2017-04-15T19:14:25.387Z,0
2017-04-15T19:15:27.199Z,0
2017-04-15T19:16:29.028Z,0
2017-04-15T19:17:30.843Z,0
2017-04-15T19:18:32.663Z,0
2017-04-15T19:19:35.191Z,0
2017-04-15T19:20:36.989Z,0
2017-04-15T19:21:38.815Z,0
2017-04-15T19:22:40.964Z,0
2017-04-15T19:23:47.702Z,0
2017-04-15T19:25:31.583Z,0
2017-04-15T19:26:33.384Z,0
2017-04-15T19:27:35.198Z,0
2017-04-15T19:28:37.002Z,0
2017-04-15T19:29:38.859Z,0
2017-04-15T19:30:41.195Z,0
2017-04-15T19:31:43.017Z,0
2017-04-15T19:32:44.835Z,0
2017-04-15T19:33:46.654Z,0
2017-04-15T19:34:48.894Z,0
2017-04-15T19:35:50.699Z,0
2017-04-15T19:36:52.551Z,0
2017-04-15T19:37:54.764Z,0
2017-04-15T19:38:56.576Z,0
2017-04-15T19:39:58.725Z,0
2017-04-15T19:41:00.547Z,0
2017-04-15T19:42:02.595Z,0
2017-04-15T19:43:04.415Z,0
2017-04-15T19:44:06.236Z,0
2017-04-15T19:45:08.063Z,0
2017-04-15T19:46:10.219Z,0
2017-04-15T19:47:12.799Z,0
2017-04-15T19:48:14.609Z,0
2017-04-15T19:49:16.762Z,0
2017-04-15T19:50:18.597Z,0
2017-04-15T19:51:20.564Z,0
2017-04-15T19:52:22.951Z,0
2017-04-15T19:53:24.775Z,0
2017-04-15T19:54:26.600Z,0
2017-04-15T19:55:28.435Z,0
2017-04-15T19:56:30.259Z,0
2017-04-15T19:57:32.565Z,0
2017-04-15T19:58:34.450Z,0
2017-04-15T19:59:36.266Z,0
2017-04-15T20:00:38.106Z,0
2017-04-15T20:01:40.108Z,0
2017-04-15T20:02:41.978Z,0
2017-04-15T20:03:43.793Z,0
2017-04-15T20:04:45.650Z,0
2017-04-15T20:05:47.463Z,0
2017-04-15T20:06:49.397Z,0
2017-04-15T20:07:51.305Z,0
2017-04-15T20:08:53.128Z,0
2017-04-15T20:09:55.291Z,0
2017-04-15T20:10:57.104Z,0
2017-04-15T20:11:58.933Z,0
2017-04-15T20:13:00.747Z,0
2017-04-15T20:14:02.574Z,0
2017-04-15T20:15:04.386Z,0
2017-04-15T20:16:06.233Z,0
2017-04-15T20:17:08.381Z,0
2017-04-15T20:18:10.279Z,0
2017-04-15T20:19:12.317Z,0
2017-04-15T20:20:14.131Z,0
2017-04-15T20:21:16.353Z,0
2017-04-15T20:22:18.155Z,0
2017-04-15T20:23:19.999Z,0
2017-04-15T20:24:22.308Z,0
2017-04-15T20:25:24.458Z,0
2017-04-15T20:26:26.624Z,0
2017-04-15T20:27:28.737Z,0
2017-04-15T20:28:30.560Z,0
2017-04-15T20:29:32.644Z,0
2017-04-15T20:30:34.468Z,0
2017-04-15T20:31:36.669Z,0
2017-04-15T20:32:38.498Z,0
2017-04-15T20:33:40.652Z,0
2017-04-15T20:34:42.460Z,0
2017-04-15T20:35:44.292Z,0
2017-04-15T20:36:46.139Z,0
2017-04-15T20:37:48.312Z,0
2017-04-15T20:38:50.491Z,0
2017-04-15T20:39:52.305Z,0
2017-04-15T20:40:54.445Z,0
2017-04-15T20:41:56.255Z,0
2017-04-15T20:42:58.391Z,0
2017-04-15T20:44:00.539Z,0
2017-04-15T20:45:02.866Z,0
2017-04-15T20:46:04.686Z,0
2017-04-15T20:47:06.500Z,0
2017-04-15T20:48:08.309Z,0
2017-04-15T20:49:10.117Z,0
2017-04-15T20:50:11.933Z,0
2017-04-15T20:51:13.919Z,0
2017-04-15T20:52:16.076Z,0
2017-04-15T20:53:18.225Z,0
2017-04-15T20:54:20.053Z,0
2017-04-15T20:55:21.868Z,0
2017-04-15T20:56:24.232Z,0
2017-04-15T20:57:26.411Z,0
2017-04-15T20:58:28.224Z,0
2017-04-15T20:59:30.376Z,0
2017-04-15T21:00:32.183Z,0
2017-04-15T21:01:33.993Z,0
2017-04-15T21:02:35.808Z,0
2017-04-15T21:03:37.977Z,0
2017-04-15T21:04:40.484Z,0
2017-04-15T21:05:42.619Z,0
2017-04-15T21:06:44.429Z,0
2017-04-15T21:07:46.228Z,0
2017-04-15T21:08:48.053Z,0
2017-04-15T21:09:50.158Z,0
2017-04-15T21:10:52.204Z,0
2017-04-15T21:11:54.019Z,0
2017-04-15T21:12:55.859Z,0
2017-04-15T21:13:58.027Z,0
2017-04-15T21:14:59.825Z,0
2017-04-15T21:16:01.866Z,0
2017-04-15T21:17:04.014Z,0
2017-04-15T21:18:06.141Z,0
2017-04-15T21:19:07.951Z,0
2017-04-15T21:20:10.445Z,0
2017-04-15T21:21:12.262Z,0
2017-04-15T21:22:14.088Z,0
2017-04-15T21:23:15.897Z,0
2017-04-15T21:24:18.032Z,0
2017-04-15T21:25:20.185Z,0
2017-04-15T21:26:22.010Z,0
2017-04-15T21:27:23.835Z,0
2017-04-15T21:28:25.870Z,0
2017-04-15T21:29:27.881Z,0
2017-04-15T21:30:30.609Z,0
2017-04-15T21:31:32.421Z,0
2017-04-15T21:32:34.226Z,0
2017-04-15T21:33:36.211Z,0
2017-04-15T21:34:38.375Z,0
2017-04-15T21:35:40.202Z,0
2017-04-15T21:36:42.611Z,0
2017-04-15T21:37:44.424Z,0
2017-04-15T21:38:46.239Z,0
2017-04-15T21:39:48.157Z,0
2017-04-15T21:40:50.125Z,0
2017-04-15T21:41:51.941Z,0
2017-04-15T21:42:53.927Z,0
2017-04-15T21:43:57.676Z,0
2017-04-15T21:44:59.557Z,0
2017-04-15T21:46:01.390Z,0
2017-04-15T21:47:03.626Z,0
2017-04-15T21:48:05.445Z,0
2017-04-15T21:49:07.617Z,0
2017-04-15T21:50:10.061Z,0
2017-04-15T21:51:12.520Z,0
2017-04-15T21:52:14.776Z,0
2017-04-15T21:53:16.615Z,0
2017-04-15T21:54:18.786Z,0
2017-04-15T21:55:20.948Z,0
2017-04-15T21:56:22.919Z,0
2017-04-15T21:57:47.564Z,0
2017-04-15T21:58:50.274Z,0
2017-04-15T21:59:57.347Z,0
2017-04-15T22:00:59.319Z,0
2017-04-15T22:02:01.130Z,0
2017-04-15T22:03:03.175Z,0
2017-04-15T22:04:08.781Z,0
2017-04-15T22:05:12.289Z,0
2017-04-15T22:06:15.141Z,0
2017-04-15T22:07:18.316Z,0
2017-04-15T22:08:20.524Z,0
2017-04-15T22:09:22.948Z,0
2017-04-15T22:11:43.135Z,0
2017-04-15T22:12:45.329Z,0
2017-04-15T22:13:47.895Z,0
2017-04-15T22:14:49.708Z,0
2017-04-15T22:15:51.976Z,0
2017-04-15T22:16:53.797Z,0
2017-04-15T22:17:55.693Z,0
2017-04-15T22:18:57.504Z,0
2017-04-15T22:19:59.680Z,0
2017-04-15T22:21:01.493Z,0
2017-04-15T22:22:03.292Z,0
2017-04-15T22:23:05.124Z,0
2017-04-15T22:24:07.368Z,0
2017-04-15T22:25:09.531Z,0
2017-04-15T22:26:11.376Z,0
2017-04-15T22:27:13.471Z,0
2017-04-15T22:28:15.321Z,0
2017-04-15T22:29:17.196Z,0
2017-04-15T22:30:19.065Z,0